createdAt,value
2023-03-17T00:03:06.022Z,6.80
2023-03-17T00:05:58.402Z,4.90
2023-03-17T00:08:46.553Z,6.30
2023-03-17T00:11:33.546Z,4.50
2023-03-17T00:14:20.329Z,5.70
2023-03-17T00:17:11.959Z,5.10
2023-03-17T00:22:46.405Z,6.20
2023-03-17T00:25:34.651Z,5.60
2023-03-17T00:28:24.722Z,7.20
2023-03-17T00:31:26.234Z,5.60
2023-03-17T00:37:04.421Z,5.50
2023-03-17T00:39:51.636Z,5.00
2023-03-17T00:42:39.353Z,7.70
2023-03-17T00:45:28.333Z,7.20
2023-03-17T00:48:21.626Z,5.10
2023-03-17T00:51:09.534Z,6.10
2023-03-17T00:53:57.263Z,5.30
2023-03-17T00:56:46.108Z,6.80
2023-03-17T00:59:40.515Z,6.30
2023-03-17T01:02:31.113Z,5.50
2023-03-17T01:05:19.356Z,6.20
2023-03-17T01:08:06.583Z,4.60
2023-03-17T01:10:53.288Z,4.40
2023-03-17T01:13:40.616Z,5.40
2023-03-17T01:16:28.406Z,4.80
2023-03-17T01:19:16.889Z,4.70
2023-03-17T01:22:04.857Z,4.90
2023-03-17T01:24:51.747Z,6.30
2023-03-17T01:27:39.776Z,4.20
2023-03-17T01:30:38.573Z,3.80
2023-03-17T01:33:25.901Z,4.50
2023-03-17T01:36:13.328Z,10.00
2023-03-17T01:39:00.545Z,5.80
2023-03-17T01:41:47.579Z,5.20
2023-03-17T01:44:34.475Z,4.90
2023-03-17T01:47:23.858Z,7.50
2023-03-17T01:50:11.377Z,4.90
2023-03-17T01:52:59.416Z,3.90
2023-03-17T01:55:48.594Z,5.20
2023-03-17T01:58:36.425Z,3.40
2023-03-17T02:01:29.279Z,4.90
2023-03-17T02:04:18.638Z,6.00
2023-03-17T02:07:06.204Z,4.80
2023-03-17T02:09:55.458Z,4.70
2023-03-17T02:12:44.406Z,3.80
2023-03-17T02:15:47.012Z,4.80
2023-03-17T02:18:34.330Z,6.90
2023-03-17T02:21:46.409Z,5.50
2023-03-17T02:27:27.928Z,3.90
2023-03-17T02:30:19.341Z,3.70
2023-03-17T02:33:06.101Z,6.50
2023-03-17T02:35:53.603Z,4.30
2023-03-17T02:38:41.405Z,5.80
2023-03-17T02:41:28.815Z,5.40
2023-03-17T02:44:16.175Z,4.30
2023-03-17T02:47:03.696Z,12.80
2023-03-17T02:49:51.327Z,4.40
2023-03-17T02:52:37.915Z,5.00
2023-03-17T02:55:24.640Z,4.20
2023-03-17T02:58:11.874Z,3.90
2023-03-17T03:00:58.776Z,6.40
2023-03-17T03:03:46.084Z,5.00
2023-03-17T03:06:33.542Z,3.50
2023-03-17T03:09:21.243Z,2.60
2023-03-17T03:12:10.223Z,3.60
2023-03-17T03:14:56.878Z,5.90
2023-03-17T03:17:43.944Z,3.70
2023-03-17T03:20:31.020Z,4.80
2023-03-17T03:23:18.889Z,6.00
2023-03-17T03:26:05.749Z,4.50
2023-03-17T03:28:52.519Z,5.50
2023-03-17T03:31:39.736Z,5.10
2023-03-17T03:34:27.981Z,4.50
2023-03-17T03:37:14.930Z,6.10
2023-03-17T03:40:02.332Z,2.60
2023-03-17T03:42:49.229Z,4.40
2023-03-17T03:45:36.134Z,4.50
2023-03-17T03:48:22.955Z,3.90
2023-03-17T03:51:09.565Z,4.50
2023-03-17T03:53:56.370Z,4.50
2023-03-17T03:56:43.074Z,4.50
2023-03-17T03:59:30.592Z,4.30
2023-03-17T04:02:17.479Z,5.40
2023-03-17T04:05:05.994Z,6.40
2023-03-17T04:07:53.063Z,4.60
2023-03-17T04:10:40.319Z,4.00
2023-03-17T04:13:27.219Z,3.70
2023-03-17T04:16:13.973Z,4.40
2023-03-17T04:19:01.777Z,3.60
2023-03-17T04:21:49.710Z,5.00
2023-03-17T04:24:36.376Z,5.80
2023-03-17T04:27:23.626Z,4.80
2023-03-17T04:30:17.036Z,5.50
2023-03-17T04:33:04.178Z,3.40
2023-03-17T04:35:51.545Z,3.50
2023-03-17T04:38:38.668Z,5.00
2023-03-17T04:41:25.878Z,3.70
2023-03-17T04:44:12.786Z,3.80
2023-03-17T04:46:59.399Z,2.70
2023-03-17T04:49:46.825Z,4.30
2023-03-17T04:52:34.241Z,2.80
2023-03-17T04:55:21.368Z,5.10
2023-03-17T04:58:10.334Z,6.10
2023-03-17T05:00:59.257Z,4.00
2023-03-17T05:03:46.310Z,3.80
2023-03-17T05:06:33.428Z,3.10
2023-03-17T05:09:20.053Z,4.00
2023-03-17T05:12:08.804Z,5.10
2023-03-17T05:14:55.697Z,3.10
2023-03-17T05:17:42.719Z,8.90
2023-03-17T05:20:29.413Z,4.30
2023-03-17T05:23:16.746Z,3.90
2023-03-17T05:26:04.279Z,10.80
2023-03-17T05:28:51.295Z,6.10
2023-03-17T05:31:38.613Z,26.40
2023-03-17T05:34:26.060Z,94.10
2023-03-17T05:37:13.274Z,65.40
2023-03-17T05:40:00.295Z,61.40
2023-03-17T05:42:47.712Z,93.10
2023-03-17T05:45:34.847Z,66.40
2023-03-17T05:48:22.919Z,69.20
2023-03-17T05:51:09.748Z,70.30
2023-03-17T05:53:56.888Z,85.30
2023-03-17T05:56:43.810Z,74.10
2023-03-17T05:59:31.351Z,55.70
2023-03-17T06:02:18.684Z,56.00
2023-03-17T06:05:06.519Z,65.00
2023-03-17T06:07:56.346Z,61.50
2023-03-17T06:10:43.701Z,60.70
2023-03-17T06:13:30.960Z,48.40
2023-03-17T06:16:18.051Z,47.00
2023-03-17T06:19:05.029Z,42.50
2023-03-17T06:21:52.473Z,40.30
2023-03-17T06:24:39.305Z,39.40
2023-03-17T06:27:26.384Z,51.50
2023-03-17T06:30:14.256Z,42.20
2023-03-17T06:33:02.250Z,39.30
2023-03-17T06:35:49.382Z,33.20
2023-03-17T06:38:36.933Z,29.90
2023-03-17T06:41:24.000Z,39.30
2023-03-17T06:44:11.209Z,36.00
2023-03-17T06:46:58.495Z,34.20
2023-03-17T06:49:45.186Z,19.50
2023-03-17T06:52:32.417Z,20.00
2023-03-17T06:55:19.750Z,22.50
2023-03-17T06:58:06.562Z,21.00
2023-03-17T07:00:54.255Z,15.20
2023-03-17T07:03:44.064Z,12.90
2023-03-17T07:06:31.193Z,15.60
2023-03-17T07:09:18.415Z,17.50
2023-03-17T07:12:06.247Z,14.10
2023-03-17T07:14:53.168Z,15.20
2023-03-17T07:17:41.974Z,13.70
2023-03-17T07:20:29.161Z,14.70
2023-03-17T07:23:23.056Z,13.00
2023-03-17T07:26:10.663Z,13.70
2023-03-17T07:28:57.763Z,14.40
2023-03-17T07:31:46.012Z,15.70
2023-03-17T07:34:33.549Z,19.50
2023-03-17T07:37:21.992Z,13.50
2023-03-17T07:40:10.439Z,15.80
2023-03-17T07:42:57.654Z,20.30
2023-03-17T07:45:46.987Z,14.20
2023-03-17T07:48:37.821Z,14.90
2023-03-17T07:51:28.092Z,11.00
2023-03-17T07:54:16.060Z,11.80
2023-03-17T07:57:03.954Z,11.10
2023-03-17T07:59:51.659Z,11.70
2023-03-17T08:02:39.290Z,14.80
2023-03-17T08:05:26.375Z,13.30
2023-03-17T08:08:13.497Z,16.90
2023-03-17T08:11:05.530Z,13.70
2023-03-17T08:13:52.438Z,10.80
2023-03-17T08:16:39.092Z,14.20
2023-03-17T08:19:26.401Z,16.00
2023-03-17T08:22:13.286Z,11.20
2023-03-17T08:25:00.411Z,13.70
2023-03-17T08:27:47.445Z,9.90
2023-03-17T08:30:35.117Z,11.50
2023-03-17T08:33:23.006Z,18.60
2023-03-17T08:36:11.649Z,7.50
2023-03-17T08:38:59.255Z,9.90
2023-03-17T08:41:47.076Z,7.60
2023-03-17T08:44:34.527Z,9.10
2023-03-17T08:47:22.059Z,5.70
2023-03-17T08:50:14.916Z,8.90
2023-03-17T08:53:02.250Z,6.00
2023-03-17T08:55:48.936Z,10.40
2023-03-17T08:58:37.787Z,8.50
2023-03-17T09:01:25.113Z,7.00
2023-03-17T09:04:11.932Z,14.50
2023-03-17T09:07:03.834Z,9.30
2023-03-17T09:09:51.092Z,17.30
2023-03-17T09:12:38.333Z,9.20
2023-03-17T09:15:25.438Z,5.80
2023-03-17T09:18:13.155Z,7.10
2023-03-17T09:21:00.489Z,7.00
2023-03-17T09:23:47.607Z,8.10
2023-03-17T09:26:34.303Z,8.50
2023-03-17T09:29:21.423Z,11.80
2023-03-17T09:32:08.979Z,6.20
2023-03-17T09:34:56.483Z,17.60
2023-03-17T09:37:43.816Z,9.10
2023-03-17T09:40:35.971Z,9.60
2023-03-17T09:44:03.731Z,8.10
2023-03-17T09:47:14.595Z,6.40
2023-03-17T09:50:04.460Z,9.40
2023-03-17T09:52:55.373Z,7.60
2023-03-17T09:55:44.173Z,7.60
2023-03-17T09:58:35.862Z,9.00
2023-03-17T10:01:23.374Z,9.60
2023-03-17T10:04:12.163Z,8.40
2023-03-17T10:07:04.717Z,7.10
2023-03-17T10:10:12.622Z,4.30
2023-03-17T10:13:17.946Z,7.30
2023-03-17T10:16:28.674Z,6.30
2023-03-17T10:19:27.889Z,7.10
2023-03-17T10:22:48.949Z,7.80
2023-03-17T10:25:37.626Z,7.40
2023-03-17T10:28:30.016Z,8.30
2023-03-17T10:31:21.485Z,5.40
2023-03-17T10:34:21.875Z,3.90
2023-03-17T10:37:18.829Z,6.70
2023-03-17T10:40:10.594Z,5.00
2023-03-17T10:43:05.632Z,3.70
2023-03-17T10:46:01.023Z,4.60
2023-03-17T10:48:58.389Z,7.30
2023-03-17T10:51:46.995Z,4.20
2023-03-17T10:54:37.327Z,4.00
2023-03-17T10:57:24.497Z,6.00
2023-03-17T11:00:20.147Z,4.30
2023-03-17T11:03:24.738Z,5.60
2023-03-17T11:06:17.398Z,2.90
2023-03-17T11:09:21.403Z,3.90
2023-03-17T11:12:19.991Z,7.60
2023-03-17T11:15:15.924Z,6.40
2023-03-17T11:18:18.817Z,8.10
2023-03-17T11:21:19.709Z,3.90
2023-03-17T11:24:26.442Z,8.00
2023-03-17T11:27:35.876Z,5.20
2023-03-17T11:30:38.650Z,7.30
2023-03-17T11:33:31.609Z,4.10
2023-03-17T11:36:30.382Z,3.40
2023-03-17T11:39:26.550Z,7.40
2023-03-17T11:42:32.080Z,3.10
2023-03-17T11:45:38.384Z,4.70
2023-03-17T11:48:35.305Z,2.90
2023-03-17T11:51:30.507Z,5.70
2023-03-17T11:54:38.820Z,10.80
2023-03-17T11:57:32.393Z,5.80
2023-03-17T12:00:28.131Z,4.00
2023-03-17T12:03:31.393Z,3.20
2023-03-17T12:06:26.186Z,2.80
2023-03-17T12:09:31.718Z,1.90
2023-03-17T12:12:28.506Z,3.10
2023-03-17T12:15:27.177Z,2.40
2023-03-17T12:18:17.289Z,3.70
2023-03-17T12:21:23.031Z,3.00
2023-03-17T12:24:13.020Z,3.70
2023-03-17T12:27:05.269Z,4.90
2023-03-17T12:30:03.134Z,2.70
2023-03-17T12:33:00.967Z,2.90
2023-03-17T12:35:48.132Z,2.60
2023-03-17T12:38:43.533Z,5.60
2023-03-17T12:42:10.276Z,2.40
2023-03-17T12:45:15.895Z,4.30
2023-03-17T12:48:24.140Z,3.70
2023-03-17T12:51:29.102Z,3.60
2023-03-17T12:54:28.157Z,3.60
2023-03-17T12:57:27.590Z,2.60
2023-03-17T13:00:37.531Z,3.10
2023-03-17T13:03:30.792Z,5.20
2023-03-17T13:06:21.606Z,1.70
2023-03-17T13:09:31.614Z,3.00
2023-03-17T13:12:38.437Z,2.40
2023-03-17T13:15:25.374Z,2.60
2023-03-17T13:18:18.633Z,2.60
2023-03-17T13:21:06.047Z,7.60
2023-03-17T13:24:16.310Z,2.90
2023-03-17T13:27:04.867Z,6.90
2023-03-17T13:29:53.672Z,2.80
2023-03-17T13:32:40.858Z,3.20
2023-03-17T13:35:41.907Z,3.80
2023-03-17T13:38:35.035Z,2.20
2023-03-17T13:41:46.819Z,3.70
2023-03-17T13:44:51.868Z,2.60
2023-03-17T13:47:44.432Z,3.20
2023-03-17T13:50:33.008Z,2.10
2023-03-17T13:53:27.869Z,2.30
2023-03-17T13:56:20.455Z,9.50
2023-03-17T13:59:14.601Z,2.50
2023-03-17T14:02:16.937Z,4.60
2023-03-17T14:05:27.177Z,8.90
2023-03-17T14:08:21.829Z,2.20
2023-03-17T14:11:22.384Z,1.60
2023-03-17T14:14:26.029Z,3.50
2023-03-17T14:17:51.169Z,1.60
2023-03-17T14:20:37.983Z,2.30
2023-03-17T14:23:26.343Z,2.70
2023-03-17T14:26:13.153Z,2.90
2023-03-17T14:29:02.772Z,3.90
2023-03-17T14:31:53.026Z,3.40
2023-03-17T14:34:48.877Z,3.00
2023-03-17T14:37:37.723Z,6.10
2023-03-17T14:40:28.439Z,3.70
2023-03-17T14:43:16.720Z,9.50
2023-03-17T14:46:12.823Z,4.40
2023-03-17T14:49:14.540Z,2.80
2023-03-17T14:52:02.795Z,2.60
2023-03-17T14:54:53.625Z,2.40
2023-03-17T14:57:40.434Z,2.70
2023-03-17T15:00:38.051Z,3.30
2023-03-17T15:03:29.792Z,3.00
2023-03-17T15:06:26.848Z,4.10
2023-03-17T15:09:20.004Z,2.10
2023-03-17T15:12:19.447Z,4.80
2023-03-17T15:15:22.719Z,5.20
2023-03-17T15:18:17.710Z,4.50
2023-03-17T15:21:05.030Z,5.90
2023-03-17T15:23:52.141Z,2.80
2023-03-17T15:26:39.054Z,3.10
2023-03-17T15:29:26.371Z,2.90
2023-03-17T15:32:16.696Z,4.40
2023-03-17T15:35:03.763Z,11.70
2023-03-17T15:37:51.121Z,4.00
2023-03-17T15:40:38.129Z,6.10
2023-03-17T15:43:24.751Z,7.00
2023-03-17T15:46:31.729Z,3.50
2023-03-17T15:49:18.848Z,2.50
2023-03-17T15:52:14.360Z,6.80
2023-03-17T15:55:01.374Z,3.20
2023-03-17T15:57:54.752Z,3.70
2023-03-17T16:00:42.988Z,4.70
2023-03-17T16:03:37.799Z,10.90
2023-03-17T16:06:24.692Z,3.80
2023-03-17T16:09:16.980Z,2.30
2023-03-17T16:12:04.652Z,11.60
2023-03-17T16:14:51.671Z,2.20
2023-03-17T16:17:38.805Z,3.20
2023-03-17T16:20:27.448Z,4.20
2023-03-17T16:23:17.711Z,9.90
2023-03-17T16:26:14.717Z,3.60
2023-03-17T16:29:02.417Z,3.70
2023-03-17T16:31:50.939Z,3.00
2023-03-17T16:34:37.784Z,9.90
2023-03-17T16:37:25.013Z,3.80
2023-03-17T16:40:21.972Z,2.40
2023-03-17T16:43:38.088Z,2.50
2023-03-17T16:46:26.950Z,1.80
2023-03-17T16:49:19.272Z,3.30
2023-03-17T16:52:06.475Z,11.10
2023-03-17T16:54:53.698Z,2.20
2023-03-17T16:57:43.292Z,5.40
2023-03-17T17:00:31.413Z,3.00
2023-03-17T17:03:19.200Z,3.80
2023-03-17T17:06:07.244Z,5.50
2023-03-17T17:08:54.331Z,5.20
2023-03-17T17:11:41.224Z,7.20
2023-03-17T17:14:28.549Z,1.90
2023-03-17T17:17:15.566Z,5.00
2023-03-17T17:20:02.286Z,1.80
2023-03-17T17:22:49.905Z,2.90
2023-03-17T17:25:36.924Z,3.20
2023-03-17T17:28:24.955Z,3.70
2023-03-17T17:31:11.886Z,2.40
2023-03-17T17:33:58.682Z,3.30
2023-03-17T17:36:46.034Z,4.10
2023-03-17T17:39:32.866Z,3.00
2023-03-17T17:42:21.060Z,3.10
2023-03-17T17:45:09.307Z,3.50
2023-03-17T17:47:56.544Z,6.00
2023-03-17T17:50:45.459Z,4.30
2023-03-17T17:53:32.713Z,9.10
2023-03-17T17:56:19.934Z,3.40
2023-03-17T17:59:07.256Z,2.40
2023-03-17T18:01:54.364Z,4.50
2023-03-17T18:04:42.418Z,3.10
2023-03-17T18:07:30.045Z,5.10
2023-03-17T18:10:26.018Z,7.40
2023-03-17T18:13:12.773Z,2.40
2023-03-17T18:16:01.445Z,3.20
2023-03-17T18:18:48.461Z,3.70
2023-03-17T18:21:36.655Z,1.70
2023-03-17T18:24:24.326Z,5.30
2023-03-17T18:27:11.990Z,2.30
2023-03-17T18:29:59.985Z,2.60
2023-03-17T18:32:49.729Z,5.60
2023-03-17T18:35:37.536Z,3.80
2023-03-17T18:38:25.339Z,4.70
2023-03-17T18:41:12.792Z,3.70
2023-03-17T18:43:59.782Z,3.20
2023-03-17T18:46:46.491Z,3.30
2023-03-17T18:49:33.705Z,3.40
2023-03-17T18:52:21.231Z,7.50
2023-03-17T18:55:10.193Z,7.40
2023-03-17T18:57:57.423Z,3.50
2023-03-17T19:00:44.399Z,4.20
2023-03-17T19:03:32.546Z,2.40
2023-03-17T19:06:21.645Z,4.70
2023-03-17T19:09:11.724Z,2.50
2023-03-17T19:11:59.666Z,8.40
2023-03-17T19:14:46.481Z,7.20
2023-03-17T19:17:33.596Z,4.50
2023-03-17T19:20:20.512Z,3.40
2023-03-17T19:23:08.134Z,2.40
2023-03-17T19:25:55.260Z,5.10
2023-03-17T19:28:42.388Z,3.60
2023-03-17T19:31:29.349Z,5.20
2023-03-17T19:34:16.626Z,4.30
2023-03-17T19:37:04.106Z,2.70
2023-03-17T19:39:51.263Z,3.80
2023-03-17T19:42:38.378Z,5.20
2023-03-17T19:45:26.227Z,3.20
2023-03-17T19:48:12.815Z,3.10
2023-03-17T19:51:00.458Z,3.50
2023-03-17T19:53:47.366Z,3.50
2023-03-17T19:56:34.488Z,3.60
2023-03-17T19:59:21.420Z,3.90
2023-03-17T20:02:08.838Z,5.80
2023-03-17T20:04:55.994Z,3.50
2023-03-17T20:07:42.781Z,3.30
2023-03-17T20:10:29.906Z,5.00
2023-03-17T20:13:17.314Z,3.10
2023-03-17T20:16:05.942Z,2.90
2023-03-17T20:18:52.650Z,2.70
2023-03-17T20:21:40.281Z,2.40
2023-03-17T20:24:31.513Z,2.50
2023-03-17T20:27:18.520Z,3.90
2023-03-17T20:30:08.513Z,5.00
2023-03-17T20:32:55.373Z,4.10
2023-03-17T20:35:44.811Z,4.40
2023-03-17T20:38:39.006Z,5.20
2023-03-17T20:41:26.187Z,3.60
2023-03-17T20:44:13.834Z,4.00
2023-03-17T20:47:00.844Z,4.10
2023-03-17T20:49:48.984Z,4.20
2023-03-17T20:52:41.223Z,4.10
2023-03-17T20:55:28.546Z,3.80
2023-03-17T20:58:16.145Z,4.50
2023-03-17T21:01:03.695Z,4.50
2023-03-17T21:03:51.730Z,4.10
2023-03-17T21:06:39.790Z,3.50
2023-03-17T21:09:26.793Z,4.70
2023-03-17T21:12:16.431Z,4.80
2023-03-17T21:15:03.793Z,5.30
2023-03-17T21:17:50.679Z,3.70
2023-03-17T21:20:37.735Z,2.50
2023-03-17T21:23:24.748Z,2.90
2023-03-17T21:26:13.798Z,4.70
2023-03-17T21:29:00.840Z,3.70
2023-03-17T21:31:48.007Z,5.40
2023-03-17T21:34:35.982Z,2.70
2023-03-17T21:37:22.655Z,2.90
2023-03-17T21:40:13.649Z,3.60
2023-03-17T21:43:01.019Z,3.90
2023-03-17T21:45:48.728Z,3.60
2023-03-17T21:48:35.566Z,4.90
2023-03-17T21:51:22.817Z,8.70
2023-03-17T21:54:10.738Z,3.70
2023-03-17T21:56:58.507Z,4.90
2023-03-17T21:59:45.785Z,4.10
2023-03-17T22:02:32.999Z,4.50
2023-03-17T22:05:19.921Z,4.00
2023-03-17T22:08:06.785Z,2.00
2023-03-17T22:10:54.057Z,3.00
2023-03-17T22:13:41.581Z,3.10
2023-03-17T22:16:28.938Z,3.10
2023-03-17T22:19:19.309Z,4.30
2023-03-17T22:22:08.566Z,3.50
2023-03-17T22:24:56.631Z,4.00
2023-03-17T22:27:43.930Z,4.30
2023-03-17T22:30:30.884Z,3.80
2023-03-17T22:33:18.366Z,4.10
2023-03-17T22:36:06.361Z,4.90
2023-03-17T22:38:54.771Z,4.80
2023-03-17T22:41:41.777Z,4.00
2023-03-17T22:44:28.696Z,3.00
2023-03-17T22:47:15.801Z,3.70
2023-03-17T22:50:02.929Z,3.40
2023-03-17T22:52:50.048Z,7.10
2023-03-17T22:55:37.158Z,5.40
2023-03-17T22:58:24.900Z,5.80
2023-03-17T23:01:13.640Z,4.30
2023-03-17T23:04:01.309Z,4.70
2023-03-17T23:06:49.127Z,9.50
2023-03-17T23:09:38.702Z,5.30
2023-03-17T23:12:28.295Z,7.50
2023-03-17T23:15:15.166Z,6.50
2023-03-17T23:18:02.562Z,5.40
2023-03-17T23:20:50.558Z,5.00
2023-03-17T23:23:38.808Z,5.50
2023-03-17T23:26:26.755Z,4.60
2023-03-17T23:29:13.455Z,5.00
2023-03-17T23:32:00.974Z,4.90
2023-03-17T23:34:47.952Z,5.10
2023-03-17T23:37:36.415Z,5.20
2023-03-17T23:40:23.852Z,6.50
2023-03-17T23:43:10.657Z,6.10
2023-03-17T23:45:57.717Z,6.70
2023-03-17T23:48:44.698Z,6.60
2023-03-17T23:51:31.167Z,5.80
2023-03-17T23:54:17.916Z,7.00
2023-03-17T23:57:05.176Z,6.10
2023-03-17T23:59:52.673Z,7.30
